Aérodrome :
LOGIN :

S'inscrire | Disclaimer

   EN    FR    IT 

 










Légende :    VFR   VFR Marginal   IFR   IFR Intensif   IFR Très Intensif
Visi : 
Plafond : 
>= 8 km
>= 3000ft
5 à 8 km
1000 à 3000 ft
1500m à 5 km
500 à 1000 ft
800 à 1500m
200 à 500 ft
< 800m
< 200 ft
Symboles :   Orages  Brouillard  Fortes neiges  Fortes précipitations  Vent > 20 kt
SIGMETs :   Divers  Orages  Givrage  Turbulence  Onde Orograph.  Cendres Volcan.







- Altitude de l'aérodrome : 11 ft
- Code IATA : PVK


LGPZ - Aktion Lefkada Preveza

DERNIER METAR :
  • 220920Z VRB03KT 9999 FEW020 26/14 Q1021

METARs EXPIRÉS :
  • 220850Z VRB03KT 9999 FEW020 25/13 Q1021
  • 220820Z 04007KT 9999 FEW020 24/12 Q1021
  • 220750Z 04007KT 9999 FEW020 24/14 Q1022 RMK FEW180 BLU
  • 220720Z 03008KT 9999 FEW020 24/12 Q1021
  • 220650Z 05010KT 9999 FEW020 23/13 Q1021 RMK FEW180 BLU

TAF TAF LGPZ
Valide du 22 à 06h jusqu'au 23 à 06h UTC


220500Z 2206/2306 10006KT 9999 FEW020
BECMG 2210/2212 27010KT
BECMG 2220/2222 VRB05KT
Pas de NOTAMs connus pour ce terrain.



MET'MAP, la Météo Aéronautique d'un coup d'oeil ! - Copyright ORBIFLY Décembre 2007 - Disclaimer

ORBIFLY MET'MAP TEAM :

Programmation & Développement : Alexandra Zaïnal
Conception & Développement : Baudouin d'Aumeries
Co-Programmation & Développement : Marc-Olivier Méhu
Soutien technique & logistique : Manuel Goepfert

Contact : metmap@orbifly.com




SOURCES & CREDITS :

   NOAA